Impacts METAR Board
IDs:

KGRK - Killeen-Ft Hood Rgnl, TX, US

Updated at: 0000 UTC 01 Nov 2020
Potential Impact None Slight Moderate High
Time 31/12Z 31/13Z 31/14Z 31/15Z 31/16Z 31/17Z 31/18Z 31/19Z 31/20Z 31/21Z 31/22Z 31/23Z 01/00Z
Temp45 40 50 57 61 65 68 71 72 74 74 72 67
Dewpt38 36 41 43 41 40 38 37 39 41 39 40 42
Altim30.19 30.19 30.20 30.22 30.21 30.20 30.17 30.14 30.10 30.07 30.08 30.07 30.09
VIS10 9 9 7 8 7 5 8 2.25 6 10 4 9
CIG-- -- -- -- -- -- -- -- -- -- -- -- --
CoverCLRCLRCLRCLRCLRCLRCLRCLRFEWSCTCLRCLRCLR
FltCatVFRVFRVFRVFRVFRVFRMVFRVFRIFRVFRVFRMVFRVFR
WX------------HZ--HZHZ--HZ--
WDir170170160160160190140200180140160160160
WSpd5 6 5 6 11 7 7 5 9 11 6 7 4
WGst-- -- -- -- -- -- -- -- -- -- -- -- --
Raw hourly METARs
KGRK 311158Z AUTO 17005KT 10SM CLR 07/03 A3019 RMK AO2 SLP224 T00720033 10095 20044 53003 $
KGRK 311258Z AUTO 17006KT 9SM CLR 05/02 A3019 RMK AO2 SLP225 T00460023 $
KGRK 311358Z AUTO 16005KT 9SM CLR 10/05 A3020 RMK AO2 SLP227 T00990051 $
KGRK 311458Z AUTO 16006KT 7SM CLR 14/06 A3022 RMK AO2 SLP233 T01370059 53008 $
KGRK 311558Z AUTO 16011KT 8SM CLR 16/05 A3021 RMK AO2 SLP228 T01630049 $
KGRK 311658Z AUTO 19007KT 7SM CLR 19/05 A3020 RMK AO2 SLP224 T01850046 $
KGRK 311758Z AUTO 14007KT 5SM HZ CLR 20/04 A3017 RMK AO2 SLP215 T02010036 10203 20043 58015 $
KGRK 311858Z AUTO 20005KT 8SM CLR 22/03 A3014 RMK AO2 SLP204 T02150027 $
KGRK 312003Z AUTO 18009KT 2 1/4SM HZ FEW270 22/04 A3010 RMK AO2 VIS 2 1/4V10 SLP191 $
KGRK 312058Z AUTO 14011KT 6SM HZ SCT290 23/05 A3007 RMK AO2 SLP179 T02340050 57034 $
KGRK 312158Z AUTO 16006KT 10SM CLR 23/04 A3008 RMK AO2 SLP183 T02340039 $
KGRK 312258Z AUTO 16007KT 4SM HZ CLR 22/05 A3007 RMK AO2 SLP181 T02220047 $
KGRK 312358Z AUTO 16004KT 9SM CLR 19/06 A3009 RMK AO2 SLP188 T01940055 10236 20189 50006 $